Time;durP1;ratioP1;P1;durP2;ratioP2;P2;SDS_P1;SDS_P2;PMS_P1;PMS_P2;Temp;Humidity;BMP_temperature;BMP_pressure;BME280_temperature;BME280_humidity;BME280_pressure;Samples;Min_cycle;Max_cycle;Signal;HPM_P1;HPM_P2
2021/01/26 00:00:50;;;;;;;15.20;9.50;;;1.50;84.20;;;;;;5029832;28;20102;-66
2021/01/26 00:03:16;;;;;;;16.10;10.55;;;1.50;84.20;;;;;;5033051;28;20474;-67
2021/01/26 00:05:42;;;;;;;14.82;10.10;;;1.50;84.20;;;;;;5031543;28;20060;-67
2021/01/26 00:08:08;;;;;;;16.48;9.95;;;1.50;84.10;;;;;;5033728;28;20029;-66
2021/01/26 00:10:34;;;;;;;13.43;9.75;;;1.50;83.90;;;;;;5033098;28;20104;-66
2021/01/26 00:13:00;;;;;;;14.48;8.80;;;1.40;83.90;;;;;;5033667;28;20025;-67
2021/01/26 00:15:26;;;;;;;11.85;7.97;;;1.40;83.80;;;;;;5032356;28;20056;-67
2021/01/26 00:17:51;;;;;;;13.10;8.27;;;1.40;83.80;;;;;;5013758;28;20478;-67
2021/01/26 00:20:18;;;;;;;14.38;8.82;;;1.30;84.00;;;;;;5024901;28;20111;-67
2021/01/26 00:22:44;;;;;;;11.18;7.47;;;1.30;84.10;;;;;;5033121;28;20104;-67
2021/01/26 00:25:20;;;;;;;11.73;8.10;;;1.30;84.00;;;;;;5032505;28;20068;-67
2021/01/26 00:27:45;;;;;;;14.00;9.02;;;1.30;84.00;;;;;;5032961;28;20084;-67
2021/01/26 00:30:21;;;;;;;12.35;8.20;;;1.30;84.10;;;;;;5033358;28;20029;-67
2021/01/26 00:32:46;;;;;;;12.32;8.02;;;1.30;84.10;;;;;;5032733;28;20026;-66
2021/01/26 00:35:14;;;;;;;13.93;8.32;;;1.30;84.00;;;;;;5049434;28;20036;-67
2021/01/26 00:37:39;;;;;;;13.13;8.40;;;1.30;83.90;;;;;;5038001;28;20068;-67
2021/01/26 00:40:06;;;;;;;12.73;8.50;;;1.20;83.80;;;;;;5033121;28;20052;-67
2021/01/26 00:42:31;;;;;;;12.55;8.02;;;1.20;83.70;;;;;;5032036;28;20030;-66
2021/01/26 00:44:57;;;;;;;12.40;8.35;;;1.20;83.60;;;;;;5031831;28;20108;-67
2021/01/26 00:47:23;;;;;;;13.35;8.68;;;1.20;83.70;;;;;;5032876;28;20053;-66
2021/01/26 00:49:48;;;;;;;13.05;8.77;;;1.20;83.70;;;;;;5032595;28;20683;-67
2021/01/26 00:52:14;;;;;;;14.20;9.25;;;1.20;83.70;;;;;;5031108;28;20040;-66
2021/01/26 00:54:40;;;;;;;13.52;8.75;;;1.20;83.60;;;;;;5031710;28;20029;-67
2021/01/26 00:57:05;;;;;;;14.32;8.88;;;1.10;83.60;;;;;;5032903;28;20028;-66
2021/01/26 00:59:31;;;;;;;13.48;9.48;;;1.10;83.60;;;;;;5032421;28;20025;-66
2021/01/26 01:01:57;;;;;;;14.77;9.27;;;1.10;83.60;;;;;;5032369;28;20029;-66
2021/01/26 01:04:23;;;;;;;17.65;10.70;;;1.10;83.40;;;;;;5031107;28;20030;-66
2021/01/26 01:06:48;;;;;;;15.85;10.35;;;1.00;83.50;;;;;;5018769;28;20026;-67
2021/01/26 01:09:14;;;;;;;16.80;10.80;;;1.00;83.60;;;;;;5015714;28;20092;-67
2021/01/26 01:11:40;;;;;;;17.15;11.88;;;1.00;83.70;;;;;;5032212;28;20053;-67
2021/01/26 01:14:05;;;;;;;16.48;10.48;;;1.00;83.50;;;;;;5031342;28;20021;-67
2021/01/26 01:16:31;;;;;;;18.90;11.60;;;1.00;83.60;;;;;;5031647;28;20036;-67
2021/01/26 01:18:57;;;;;;;17.25;11.18;;;1.00;83.60;;;;;;5032083;28;20021;-67
2021/01/26 01:21:22;;;;;;;17.40;10.60;;;1.00;83.60;;;;;;5032274;28;20022;-67
2021/01/26 01:23:48;;;;;;;18.42;12.30;;;1.00;83.60;;;;;;5031820;28;20017;-67
2021/01/26 01:26:13;;;;;;;18.98;10.95;;;1.00;83.60;;;;;;5031863;28;20037;-67
2021/01/26 01:28:39;;;;;;;19.58;12.98;;;1.00;83.60;;;;;;5032170;28;20021;-67
2021/01/26 01:31:04;;;;;;;18.73;11.95;;;1.00;83.50;;;;;;5033139;28;20021;-67
2021/01/26 01:33:30;;;;;;;18.33;12.63;;;1.00;83.50;;;;;;5031008;28;20470;-67
2021/01/26 01:35:56;;;;;;;18.95;12.27;;;1.00;83.60;;;;;;5031605;28;20107;-67
2021/01/26 01:38:21;;;;;;;20.08;12.98;;;0.90;83.40;;;;;;5030385;28;20021;-67
2021/01/26 01:40:50;;;;;;;20.13;12.35;;;0.90;83.40;;;;;;5032082;28;20481;-67
2021/01/26 01:43:16;;;;;;;23.67;13.25;;;0.90;83.40;;;;;;5031195;28;20024;-67
2021/01/26 01:45:41;;;;;;;21.23;12.27;;;0.90;83.60;;;;;;5030994;28;20034;-67
2021/01/26 01:48:28;;;;;;;23.13;13.57;;;0.90;83.70;;;;;;5031399;28;20037;-67
2021/01/26 01:50:59;;;;;;;19.73;12.15;;;1.00;83.80;;;;;;5031438;28;20253;-67
2021/01/26 01:53:29;;;;;;;18.20;10.60;;;1.00;83.60;;;;;;5031621;28;20037;-67
2021/01/26 01:56:05;;;;;;;15.48;10.93;;;1.00;83.60;;;;;;5030969;28;20386;-67
2021/01/26 01:58:35;;;;;;;20.38;12.75;;;0.90;83.50;;;;;;5031195;28;20033;-67
2021/01/26 02:01:06;;;;;;;19.58;11.35;;;0.90;83.50;;;;;;5030716;28;20517;-67
2021/01/26 02:03:37;;;;;;;20.00;12.05;;;0.90;83.70;;;;;;5031166;28;20105;-67
2021/01/26 02:06:03;;;;;;;19.30;12.00;;;0.90;83.70;;;;;;5029590;28;20448;-67
2021/01/26 02:08:40;;;;;;;20.20;12.25;;;0.90;83.70;;;;;;5031200;28;20116;-67
2021/01/26 02:11:06;;;;;;;17.90;11.40;;;0.90;83.80;;;;;;5031016;28;20029;-67
2021/01/26 02:13:31;;;;;;;18.73;11.38;;;1.00;83.80;;;;;;5031346;28;20030;-67
2021/01/26 02:16:00;;;;;;;18.30;12.45;;;1.00;83.80;;;;;;5028735;28;20029;-67
2021/01/26 02:19:08;;;;;;;20.27;11.25;;;1.00;83.80;;;;;;5014052;28;20049;-67
2021/01/26 02:22:08;;;;;;;17.98;11.55;;;1.00;83.80;;;;;;5029797;28;20041;-67
2021/01/26 02:25:23;;;;;;;19.23;11.75;;;1.00;83.80;;;;;;5029667;28;20091;-67
2021/01/26 02:28:04;;;;;;;20.13;10.95;;;1.00;83.60;;;;;;5013291;28;20059;-67
2021/01/26 02:30:55;;;;;;;19.80;11.77;;;1.00;83.60;;;;;;5024720;28;20029;-67
2021/01/26 02:33:29;;;;;;;17.83;10.77;;;1.00;83.70;;;;;;5030572;28;20104;-67
2021/01/26 02:36:32;;;;;;;16.33;10.52;;;1.00;83.70;;;;;;5029870;28;20029;-67
2021/01/26 02:39:12;;;;;;;;;;;1.00;83.70;;;;;;5030940;28;20104;-67
2021/01/26 02:41:51;;;;;;;17.40;10.55;;;1.00;83.60;;;;;;5030590;28;20270;-67
2021/01/26 02:44:48;;;;;;;19.13;12.10;;;1.00;83.50;;;;;;5027626;28;20029;-67
2021/01/26 02:47:22;;;;;;;17.85;10.85;;;0.90;83.70;;;;;;5030697;28;20036;-67
2021/01/26 02:50:18;;;;;;;19.17;11.63;;;0.90;83.60;;;;;;5030630;28;20114;-67
2021/01/26 02:53:02;;;;;;;17.35;10.77;;;0.90;83.70;;;;;;5030223;28;20363;-67
2021/01/26 02:55:49;;;;;;;19.38;11.55;;;0.90;83.80;;;;;;5028488;28;20045;-67
2021/01/26 02:58:23;;;;;;;19.80;9.52;;;1.00;83.90;;;;;;5030000;28;20032;-67
2021/01/26 03:00:54;;;;;;;17.77;10.45;;;1.00;83.70;;;;;;5030257;28;20064;-67
2021/01/26 03:03:36;;;;;;;17.95;11.27;;;1.00;83.80;;;;;;5030221;28;20021;-67
2021/01/26 03:06:07;;;;;;;21.15;11.02;;;1.00;83.80;;;;;;5019809;28;20029;-67
2021/01/26 03:08:33;;;;;;;18.52;10.77;;;1.00;83.80;;;;;;5027352;28;20545;-67
2021/01/26 03:11:17;;;;;;;16.45;9.93;;;1.00;83.90;;;;;;5030002;28;20112;-67
2021/01/26 03:13:52;;;;;;;21.08;11.93;;;1.00;84.00;;;;;;5029803;28;20040;-67
2021/01/26 03:16:18;;;;;;;20.38;11.88;;;1.00;83.60;;;;;;5030192;28;20044;-67
2021/01/26 03:19:06;;;;;;;22.80;12.45;;;1.00;83.50;;;;;;5030536;28;20084;-67
2021/01/26 03:21:34;;;;;;;23.13;12.80;;;1.00;83.70;;;;;;5030069;28;20038;-67
2021/01/26 03:24:28;;;;;;;24.50;13.77;;;1.00;83.80;;;;;;5029443;28;20044;-67
2021/01/26 03:26:54;;;;;;;21.65;11.68;;;1.00;83.80;;;;;;5026442;28;20088;-67
2021/01/26 03:29:27;;;;;;;25.33;11.38;;;1.00;83.80;;;;;;5030381;28;20029;-67
2021/01/26 03:31:56;;;;;;;20.75;11.60;;;0.90;83.80;;;;;;5030154;28;20041;-67
2021/01/26 03:34:22;;;;;;;22.20;12.57;;;1.00;83.90;;;;;;5028653;28;20377;-67
2021/01/26 03:36:48;;;;;;;20.95;11.70;;;0.90;84.00;;;;;;5031474;28;20029;-67
2021/01/26 03:39:14;;;;;;;20.25;12.13;;;1.00;83.90;;;;;;5033812;28;20552;-67
2021/01/26 03:41:40;;;;;;;22.20;12.07;;;1.00;83.90;;;;;;5033363;28;20125;-67
2021/01/26 03:44:08;;;;;;;27.90;12.75;;;1.00;83.80;;;;;;5033084;28;20036;-67
2021/01/26 03:46:45;;;;;;;23.73;13.98;;;1.00;83.90;;;;;;5034310;28;20071;-67
2021/01/26 03:49:30;;;;;;;25.63;13.50;;;1.00;83.90;;;;;;5033492;28;20044;-67
2021/01/26 03:52:20;;;;;;;24.75;13.45;;;1.00;83.70;;;;;;5032632;28;20040;-67
2021/01/26 03:55:01;;;;;;;22.42;12.55;;;1.00;83.80;;;;;;5028428;28;20037;-67
2021/01/26 03:57:35;;;;;;;24.88;13.27;;;1.00;83.90;;;;;;5033942;28;20037;-67
2021/01/26 04:00:12;;;;;;;24.90;12.95;;;1.00;84.00;;;;;;5034011;28;20021;-67
2021/01/26 04:02:47;;;;;;;25.20;13.13;;;1.00;84.00;;;;;;5033401;28;20099;-67
2021/01/26 04:05:26;;;;;;;25.05;13.70;;;1.00;84.10;;;;;;5072812;22;20052;-90
2021/01/26 04:08:01;;;;;;;28.10;13.60;;;1.00;84.60;;;;;;5051480;28;20116;-90
2021/01/26 04:10:35;;;;;;;38.30;17.33;;;0.90;84.80;;;;;;5034738;28;20025;-90
2021/01/26 04:13:04;;;;;;;31.75;14.48;;;0.90;85.50;;;;;;5043510;28;20032;-90
2021/01/26 04:15:33;;;;;;;31.33;14.27;;;0.80;85.60;;;;;;5041815;28;20041;-90
2021/01/26 04:18:00;;;;;;;33.33;14.82;;;0.80;85.80;;;;;;5033946;28;20026;-91
2021/01/26 04:20:31;;;;;;;40.78;17.00;;;0.80;86.20;;;;;;5035392;28;20110;-90
2021/01/26 04:22:58;;;;;;;32.28;15.80;;;0.80;86.30;;;;;;5051894;28;20025;-90
2021/01/26 04:25:35;;;;;;;36.53;16.10;;;0.80;86.40;;;;;;5047198;28;20041;-90
2021/01/26 04:28:08;;;;;;;39.70;15.18;;;0.80;86.70;;;;;;5034008;28;20498;-91
2021/01/26 04:30:33;;;;;;;;;;;0.70;86.90;;;;;;5040879;28;20045;-91
2021/01/26 04:33:02;;;;;;;41.03;17.20;;;0.80;87.10;;;;;;5054360;28;19911;-91
2021/01/26 04:35:28;;;;;;;41.95;15.70;;;0.70;87.10;;;;;;5040742;28;20172;-90
2021/01/26 04:37:55;;;;;;;52.13;16.63;;;0.70;87.20;;;;;;5050423;28;20379;-91
2021/01/26 04:40:22;;;;;;;37.15;15.13;;;0.70;87.30;;;;;;5038504;28;20549;-91
2021/01/26 04:42:52;;;;;;;49.03;16.77;;;0.70;87.50;;;;;;5034204;28;20466;-90
2021/01/26 04:45:36;;;;;;;46.45;17.48;;;0.70;87.60;;;;;;5044450;28;20035;-91
2021/01/26 04:48:15;;;;;;;52.47;19.38;;;0.70;87.80;;;;;;5035831;28;20036;-90
2021/01/26 04:50:49;;;;;;;55.58;18.17;;;0.70;87.90;;;;;;5051373;28;20067;-91
2021/01/26 04:53:17;;;;;;;50.05;19.50;;;0.70;87.90;;;;;;5051943;28;20024;-91
2021/01/26 04:56:13;;;;;;;46.55;15.88;;;0.70;88.30;;;;;;5034946;28;20025;-90
2021/01/26 04:59:15;;;;;;;44.90;16.55;;;0.70;88.00;;;;;;5043107;28;20034;-91
2021/01/26 05:02:03;;;;;;;43.60;16.67;;;0.70;88.10;;;;;;5034397;28;20397;-91
2021/01/26 05:04:40;;;;;;;44.22;15.93;;;0.70;88.10;;;;;;5043969;28;20453;-90
2021/01/26 05:07:15;;;;;;;48.83;18.23;;;0.70;88.20;;;;;;5044296;28;20495;-91
2021/01/26 05:10:06;;;;;;;55.40;19.13;;;0.70;88.40;;;;;;5036902;28;20082;-90
2021/01/26 05:12:46;;;;;;;52.33;17.55;;;0.70;88.50;;;;;;5048229;28;20112;-90
2021/01/26 05:15:19;;;;;;;45.72;17.63;;;0.70;88.60;;;;;;5054331;28;20029;-90
2021/01/26 05:18:13;;;;;;;47.25;14.95;;;0.70;88.80;;;;;;5039392;28;20030;-93
2021/01/26 05:20:43;;;;;;;44.80;16.13;;;0.70;88.80;;;;;;5054769;28;20032;-90
2021/01/26 05:23:18;;;;;;;44.80;17.10;;;0.70;88.80;;;;;;5038980;28;20056;-90
2021/01/26 05:25:44;;;;;;;42.10;15.32;;;0.70;88.90;;;;;;5034463;28;20479;-91
2021/01/26 05:28:11;;;;;;;42.97;14.02;;;0.70;88.90;;;;;;5050394;28;20032;-91
2021/01/26 05:30:38;;;;;;;44.30;14.82;;;0.70;88.90;;;;;;5053405;28;20037;-90
2021/01/26 05:33:10;;;;;;;37.92;13.50;;;0.80;89.20;;;;;;5036470;28;20025;-90
2021/01/26 05:35:37;;;;;;;;;;;0.70;89.10;;;;;;5044104;28;20029;-90
2021/01/26 05:38:03;;;;;;;32.13;11.13;;;0.80;89.10;;;;;;5054649;28;19904;-90
2021/01/26 05:40:36;;;;;;;42.55;17.35;;;0.80;89.00;;;;;;5054120;28;20036;-91
2021/01/26 05:43:05;;;;;;;42.35;16.65;;;0.80;89.20;;;;;;5037382;28;20024;-90
2021/01/26 05:45:35;;;;;;;29.08;10.88;;;0.80;89.30;;;;;;5035487;28;20049;-89
2021/01/26 05:48:16;;;;;;;31.17;12.07;;;0.80;89.30;;;;;;5033899;28;20034;-90
2021/01/26 05:50:44;;;;;;;28.95;11.27;;;0.90;89.40;;;;;;5034741;28;20025;-90
2021/01/26 05:53:31;;;;;;;31.50;11.63;;;0.90;89.30;;;;;;5033937;28;20026;-91
2021/01/26 05:56:14;;;;;;;31.00;11.95;;;0.90;89.30;;;;;;5042678;28;20021;-90
2021/01/26 05:58:44;;;;;;;25.50;9.95;;;1.00;89.30;;;;;;5052957;28;20043;-90
2021/01/26 06:01:31;;;;;;;32.03;12.80;;;1.00;89.10;;;;;;5036204;28;20045;-90
2021/01/26 06:04:05;;;;;;;28.75;11.13;;;1.00;89.30;;;;;;5038049;28;20044;-90
2021/01/26 06:06:31;;;;;;;25.42;11.45;;;1.00;89.40;;;;;;5037547;28;20036;-90
2021/01/26 06:08:57;;;;;;;27.80;11.90;;;1.00;89.50;;;;;;5033805;28;20442;-90
2021/01/26 06:11:29;;;;;;;23.95;9.43;;;1.00;89.60;;;;;;5033983;28;20105;-90
2021/01/26 06:14:27;;;;;;;23.95;10.10;;;1.00;89.40;;;;;;5045925;28;20116;-91
2021/01/26 06:17:10;;;;;;;21.20;8.65;;;1.00;89.50;;;;;;5009936;28;20110;-90
2021/01/26 06:19:37;;;;;;;26.38;9.55;;;1.00;89.60;;;;;;5036682;28;20017;-90
2021/01/26 06:22:03;;;;;;;27.70;10.75;;;1.10;90.10;;;;;;5032676;28;20033;-91
2021/01/26 06:24:32;;;;;;;31.65;13.02;;;1.00;89.60;;;;;;5046827;28;20028;-91
2021/01/26 06:27:34;;;;;;;24.65;11.63;;;1.00;89.70;;;;;;5035623;28;20048;-90
2021/01/26 06:30:20;;;;;;;14.02;6.70;;;1.00;90.00;;;;;;5051358;28;20498;-91
2021/01/26 06:33:03;;;;;;;24.33;10.25;;;1.00;89.80;;;;;;5051047;28;20025;-91
2021/01/26 06:36:09;;;;;;;21.50;8.38;;;1.00;90.00;;;;;;5040302;28;20056;-91
2021/01/26 06:39:22;;;;;;;24.33;9.70;;;1.00;90.00;;;;;;4975531;28;20459;-90
2021/01/26 06:42:02;;;;;;;16.98;8.20;;;1.00;90.00;;;;;;5019728;28;20140;-90
2021/01/26 06:44:47;;;;;;;25.30;9.70;;;1.00;90.00;;;;;;5044214;28;20400;-91
2021/01/26 06:47:33;;;;;;;18.65;8.38;;;1.10;90.10;;;;;;5043528;28;20520;-90
2021/01/26 06:50:21;;;;;;;18.50;8.57;;;1.10;90.00;;;;;;5049813;28;20083;-90
2021/01/26 06:53:11;;;;;;;23.35;8.68;;;1.10;90.10;;;;;;5031247;28;20026;-90
2021/01/26 06:56:03;;;;;;;21.63;9.73;;;1.10;90.00;;;;;;5035066;28;20017;-91
2021/01/26 06:59:06;;;;;;;17.95;8.95;;;1.20;90.00;;;;;;5031525;28;20033;-91
2021/01/26 07:01:50;;;;;;;;;;;1.20;90.00;;;;;;5033356;28;20484;-91
2021/01/26 07:04:38;;;;;;;17.73;6.68;;;1.20;89.80;;;;;;5031781;28;20302;-90
2021/01/26 07:07:16;;;;;;;17.02;6.40;;;1.20;89.80;;;;;;5040850;28;20029;-90
2021/01/26 07:10:14;;;;;;;20.42;5.90;;;1.20;89.90;;;;;;5034666;28;20438;-91
2021/01/26 07:13:19;;;;;;;21.15;7.63;;;1.20;89.90;;;;;;5042651;28;20044;-91
2021/01/26 07:16:36;;;;;;;17.50;7.00;;;1.20;90.00;;;;;;5028546;28;20032;-92
2021/01/26 07:19:27;;;;;;;20.17;8.52;;;1.20;90.00;;;;;;5027228;28;20029;-92
2021/01/26 07:22:37;;;;;;;15.00;8.25;;;1.20;90.10;;;;;;5050644;28;20021;-88
2021/01/26 07:25:03;;;;;;;19.80;8.50;;;1.20;90.10;;;;;;5049872;28;20471;-92
2021/01/26 07:27:38;;;;;;;21.50;8.15;;;1.20;90.10;;;;;;5043913;28;20084;-92
2021/01/26 07:30:13;;;;;;;16.13;6.80;;;1.20;90.10;;;;;;5032058;28;20032;-92
2021/01/26 07:33:05;;;;;;;16.85;6.38;;;1.20;90.10;;;;;;5031460;28;20057;-92
2021/01/26 07:35:49;;;;;;;18.38;8.05;;;1.20;90.10;;;;;;5022893;28;20045;-92
2021/01/26 07:38:34;;;;;;;11.55;5.88;;;1.30;90.10;;;;;;5042795;28;20487;-92
2021/01/26 07:41:07;;;;;;;14.10;7.75;;;1.30;90.00;;;;;;5050520;28;20036;-92
2021/01/26 07:43:44;;;;;;;11.15;5.57;;;1.30;90.00;;;;;;5036117;28;20394;-91
2021/01/26 07:46:23;;;;;;;15.88;9.07;;;1.30;90.00;;;;;;5034699;28;20025;-91
2021/01/26 07:49:01;;;;;;;17.65;6.75;;;1.30;90.10;;;;;;5030471;28;20025;-91
2021/01/26 07:51:31;;;;;;;19.90;6.93;;;1.30;90.00;;;;;;5029726;28;20029;-91
2021/01/26 07:54:21;;;;;;;17.20;7.07;;;1.40;90.00;;;;;;5030904;28;20031;-90
2021/01/26 07:56:46;;;;;;;20.52;8.18;;;1.40;89.90;;;;;;5045679;28;20030;-91
2021/01/26 07:59:16;;;;;;;13.95;6.85;;;1.40;89.90;;;;;;5031095;28;20029;-91
2021/01/26 08:01:55;;;;;;;12.00;6.43;;;1.40;89.80;;;;;;5017794;28;20026;-91
2021/01/26 08:04:22;;;;;;;13.50;6.50;;;1.40;89.60;;;;;;5030122;28;20396;-92
2021/01/26 08:06:55;;;;;;;14.52;6.53;;;1.50;89.50;;;;;;5029671;28;20033;-91
2021/01/26 08:09:34;;;;;;;19.05;7.30;;;1.50;89.10;;;;;;5029734;28;20025;-88
2021/01/26 08:12:08;;;;;;;12.30;6.22;;;1.50;89.20;;;;;;5030105;28;20029;-89
2021/01/26 08:14:41;;;;;;;13.10;6.15;;;1.50;89.00;;;;;;5031506;28;20025;-89
2021/01/26 08:17:11;;;;;;;19.35;6.70;;;1.60;89.10;;;;;;5030890;28;20447;-89
2021/01/26 08:20:03;;;;;;;14.45;6.63;;;1.60;88.90;;;;;;5041155;28;20479;-89
2021/01/26 08:22:33;;;;;;;10.85;6.65;;;1.60;88.80;;;;;;5030071;28;20040;-93
2021/01/26 08:25:05;;;;;;;11.75;5.82;;;1.60;88.50;;;;;;5038308;28;20382;-91
2021/01/26 08:27:50;;;;;;;12.95;6.63;;;1.60;88.40;;;;;;5033789;28;20083;-92
2021/01/26 08:30:36;;;;;;;12.27;6.68;;;1.60;89.30;;;;;;5027407;28;20026;-92
2021/01/26 08:33:10;;;;;;;13.85;6.82;;;1.60;88.80;;;;;;5034680;28;20096;-92
2021/01/26 08:35:41;;;;;;;16.10;6.70;;;1.60;88.90;;;;;;5035460;28;20029;-92
2021/01/26 08:38:06;;;;;;;13.73;7.00;;;1.60;88.90;;;;;;5041347;28;20067;-93
2021/01/26 08:40:32;;;;;;;13.63;7.20;;;1.60;89.10;;;;;;5033873;28;20021;-92
2021/01/26 08:43:01;;;;;;;12.73;5.75;;;1.60;89.00;;;;;;5034723;28;20468;-93
2021/01/26 08:45:26;;;;;;;11.43;6.32;;;1.60;88.90;;;;;;5042543;28;20025;-93
2021/01/26 08:48:07;;;;;;;14.38;7.38;;;1.70;89.00;;;;;;5039228;28;20044;-92
2021/01/26 08:51:01;;;;;;;20.58;8.43;;;1.70;88.90;;;;;;5042624;28;20116;-93
2021/01/26 08:53:27;;;;;;;11.20;5.53;;;1.70;88.80;;;;;;5048568;28;20037;-93
2021/01/26 08:55:56;;;;;;;11.70;6.10;;;1.80;88.90;;;;;;5041997;28;20044;-91
2021/01/26 08:58:51;;;;;;;12.88;6.03;;;1.80;88.70;;;;;;5014260;28;20551;-92
2021/01/26 09:01:22;;;;;;;14.50;6.95;;;1.80;88.60;;;;;;5035730;28;20026;-91
2021/01/26 09:03:53;;;;;;;9.57;5.45;;;1.90;88.40;;;;;;5053542;28;20025;-92
2021/01/26 09:06:38;;;;;;;12.70;5.25;;;1.90;87.90;;;;;;5038405;28;20036;-92
2021/01/26 09:09:09;;;;;;;10.43;5.15;;;1.90;87.20;;;;;;5033664;28;20029;-92
2021/01/26 09:11:49;;;;;;;9.55;5.38;;;1.90;87.60;;;;;;5051071;28;20036;-92
2021/01/26 09:14:40;;;;;;;9.32;5.30;;;1.90;87.70;;;;;;5041503;28;20025;-92
2021/01/26 09:17:17;;;;;;;10.65;4.65;;;1.90;87.70;;;;;;5041567;28;20056;-93
2021/01/26 09:20:08;;;;;;;10.15;4.50;;;2.00;87.30;;;;;;5040531;28;20028;-93
2021/01/26 09:22:34;;;;;;;9.15;4.15;;;2.00;87.20;;;;;;5029725;28;20051;-93
2021/01/26 09:25:20;;;;;;;11.88;4.40;;;2.00;87.00;;;;;;5034003;28;20037;-93
2021/01/26 09:28:02;;;;;;;11.45;5.20;;;2.00;87.20;;;;;;5021112;28;20072;-93
2021/01/26 09:30:28;;;;;;;7.50;4.22;;;2.10;86.60;;;;;;5053847;28;20071;-92
2021/01/26 09:32:54;;;;;;;9.80;4.28;;;2.10;86.60;;;;;;5034875;28;20118;-94
2021/01/26 09:35:20;;;;;;;8.43;4.32;;;2.10;86.50;;;;;;5037115;28;20120;-93
2021/01/26 09:37:45;;;;;;;7.55;3.80;;;2.10;86.40;;;;;;5035956;28;20033;-91
2021/01/26 09:40:13;;;;;;;10.18;4.78;;;2.10;86.00;;;;;;5035973;28;20128;-92
2021/01/26 09:42:39;;;;;;;11.93;4.53;;;2.10;85.70;;;;;;5048902;28;20024;-93
2021/01/26 09:45:10;;;;;;;9.85;4.43;;;2.00;86.20;;;;;;5035381;28;20025;-93
2021/01/26 09:47:36;;;;;;;8.48;4.47;;;1.90;86.30;;;;;;5037160;28;20037;-92
2021/01/26 09:50:10;;;;;;;11.82;6.30;;;1.90;86.70;;;;;;5036184;28;20029;-92
2021/01/26 09:52:36;;;;;;;7.22;4.57;;;1.80;87.30;;;;;;5035927;28;20030;-93
2021/01/26 09:55:11;;;;;;;6.60;3.92;;;1.90;87.50;;;;;;5041550;28;20086;-93
2021/01/26 09:57:38;;;;;;;8.23;4.93;;;1.80;87.20;;;;;;5037090;28;20029;-93
2021/01/26 10:00:13;;;;;;;10.02;5.32;;;1.80;87.10;;;;;;5034891;28;20187;-94
2021/01/26 10:02:41;;;;;;;9.20;4.93;;;1.90;87.10;;;;;;5034444;28;20025;-93
2021/01/26 10:05:12;;;;;;;6.30;4.00;;;1.90;86.80;;;;;;5060429;22;20063;-69
2021/01/26 10:07:39;;;;;;;9.02;4.25;;;1.90;86.90;;;;;;5049972;28;20492;-68
2021/01/26 10:10:31;;;;;;;7.43;3.83;;;2.00;86.50;;;;;;5046984;28;20021;-68
2021/01/26 10:12:57;;;;;;;10.10;4.47;;;2.00;86.40;;;;;;5046506;28;20044;-69
2021/01/26 10:15:34;;;;;;;11.70;4.32;;;2.10;86.10;;;;;;5049863;28;20029;-68
2021/01/26 10:18:05;;;;;;;6.43;3.45;;;2.10;85.90;;;;;;5044254;28;20025;-68
2021/01/26 10:20:48;;;;;;;5.88;3.70;;;2.20;85.60;;;;;;5031830;28;20022;-68
2021/01/26 10:23:25;;;;;;;9.45;4.00;;;2.20;85.40;;;;;;5050665;28;20025;-68
2021/01/26 10:25:52;;;;;;;6.63;3.20;;;2.20;85.10;;;;;;5044866;28;20026;-68
2021/01/26 10:28:25;;;;;;;10.38;3.40;;;2.20;85.00;;;;;;5046452;28;20029;-68
2021/01/26 10:30:51;;;;;;;5.35;3.15;;;2.30;84.80;;;;;;5050948;28;20905;-68
2021/01/26 10:33:40;;;;;;;7.13;3.28;;;2.20;84.10;;;;;;5042532;28;20045;-70
2021/01/26 10:36:30;;;;;;;3.67;3.28;;;2.30;84.50;;;;;;5046744;28;20064;-68
2021/01/26 10:38:58;;;;;;;9.90;3.80;;;2.30;83.90;;;;;;5049668;28;20017;-68
2021/01/26 10:41:34;;;;;;;7.53;3.03;;;2.30;84.10;;;;;;5049457;28;20029;-68
2021/01/26 10:44:11;;;;;;;9.32;3.10;;;2.30;83.80;;;;;;5047931;28;20100;-70
2021/01/26 10:46:43;;;;;;;6.68;3.25;;;2.30;83.80;;;;;;5049548;28;20025;-67
2021/01/26 10:49:15;;;;;;;6.85;3.92;;;2.30;83.30;;;;;;5049734;28;20051;-67
2021/01/26 10:51:42;;;;;;;5.73;3.13;;;2.30;83.00;;;;;;5036657;28;20104;-68
2021/01/26 10:54:09;;;;;;;5.28;2.90;;;2.30;83.00;;;;;;5062140;28;20336;-68
2021/01/26 10:56:35;;;;;;;7.00;3.55;;;2.40;83.30;;;;;;5060676;28;20035;-68
2021/01/26 10:59:01;;;;;;;6.60;3.60;;;2.40;83.00;;;;;;5058142;28;20108;-69
2021/01/26 11:01:27;;;;;;;7.53;3.58;;;2.40;82.70;;;;;;5063511;28;20029;-68
2021/01/26 11:03:54;;;;;;;10.25;3.17;;;2.50;82.40;;;;;;5047568;28;20394;-68
2021/01/26 11:06:23;;;;;;;6.78;3.22;;;2.50;82.90;;;;;;5049442;28;20073;-69
2021/01/26 11:08:50;;;;;;;7.32;3.47;;;2.50;82.70;;;;;;5050214;28;20477;-68
2021/01/26 11:11:18;;;;;;;9.73;3.67;;;2.50;82.80;;;;;;5049840;28;20024;-68
2021/01/26 11:13:44;;;;;;;11.48;4.10;;;2.40;82.60;;;;;;5049879;28;20552;-68
2021/01/26 11:16:11;;;;;;;4.65;3.15;;;2.40;82.60;;;;;;5048981;28;20055;-68
2021/01/26 11:18:36;;;;;;;5.45;2.80;;;2.40;82.20;;;;;;5050063;28;20033;-68
2021/01/26 11:21:02;;;;;;;8.20;3.28;;;2.40;82.20;;;;;;5049434;28;20586;-69
2021/01/26 11:23:29;;;;;;;9.82;3.45;;;2.40;82.10;;;;;;5048829;28;20056;-69
2021/01/26 11:25:54;;;;;;;7.70;3.80;;;2.40;82.00;;;;;;5039676;28;20040;-69
2021/01/26 11:28:20;;;;;;;6.47;2.85;;;2.40;81.80;;;;;;5045442;28;20025;-68
2021/01/26 11:30:46;;;;;;;6.88;4.15;;;2.40;82.00;;;;;;5033795;28;20036;-68
2021/01/26 11:33:12;;;;;;;5.65;3.42;;;2.30;82.00;;;;;;5049646;28;20193;-68
2021/01/26 11:35:38;;;;;;;6.28;3.03;;;2.30;81.80;;;;;;5047594;28;20029;-68
2021/01/26 11:38:04;;;;;;;7.38;3.33;;;2.30;81.90;;;;;;5049251;28;20013;-68
2021/01/26 11:40:30;;;;;;;5.93;3.33;;;2.30;81.60;;;;;;5049686;28;20036;-68
2021/01/26 11:42:56;;;;;;;7.68;3.30;;;2.30;81.80;;;;;;5049708;28;20060;-68
2021/01/26 11:45:29;;;;;;;7.22;2.97;;;2.30;81.40;;;;;;5047554;28;20420;-68
2021/01/26 11:47:55;;;;;;;4.88;2.70;;;2.30;81.40;;;;;;5049462;28;20025;-67
2021/01/26 11:50:21;;;;;;;5.65;3.40;;;2.30;81.40;;;;;;5049953;28;20032;-67
2021/01/26 11:52:48;;;;;;;4.25;2.53;;;2.40;81.80;;;;;;5049339;28;20388;-67
2021/01/26 11:55:18;;;;;;;10.65;4.40;;;2.40;81.80;;;;;;5048206;28;20029;-67
2021/01/26 11:57:45;;;;;;;6.47;3.13;;;2.30;81.40;;;;;;5050465;28;20021;-67
2021/01/26 12:00:11;;;;;;;7.25;3.58;;;2.40;81.30;;;;;;5053715;28;20032;-67
2021/01/26 12:02:37;;;;;;;6.07;3.13;;;2.30;81.10;;;;;;5052952;28;20044;-67
2021/01/26 12:05:04;;;;;;;8.23;3.05;;;2.40;81.30;;;;;;5052376;28;20033;-67
2021/01/26 12:07:30;;;;;;;7.78;3.22;;;2.30;81.30;;;;;;5053106;28;20442;-67
2021/01/26 12:09:55;;;;;;;6.82;3.00;;;2.30;81.20;;;;;;5053355;28;20104;-67
2021/01/26 12:12:21;;;;;;;6.13;3.20;;;2.40;80.90;;;;;;5053151;28;20025;-67
2021/01/26 12:14:46;;;;;;;8.57;2.85;;;2.40;81.00;;;;;;5052200;28;20025;-67
2021/01/26 12:17:12;;;;;;;5.43;3.17;;;2.40;80.70;;;;;;5051204;28;20020;-67
2021/01/26 12:19:38;;;;;;;7.35;3.30;;;2.40;80.80;;;;;;5053101;28;20031;-67
2021/01/26 12:22:03;;;;;;;5.03;2.50;;;2.40;81.10;;;;;;5052478;28;20532;-67
2021/01/26 12:24:29;;;;;;;4.10;2.50;;;2.40;81.30;;;;;;5052115;28;20025;-67
2021/01/26 12:26:55;;;;;;;3.88;3.00;;;2.50;81.00;;;;;;5044335;28;20029;-67
2021/01/26 12:29:21;;;;;;;9.00;3.40;;;2.50;80.90;;;;;;5032131;28;20056;-67
2021/01/26 12:31:47;;;;;;;5.80;3.38;;;2.50;80.10;;;;;;5041098;28;20444;-67
2021/01/26 12:34:13;;;;;;;5.82;2.60;;;2.50;80.00;;;;;;5051779;28;20083;-67
2021/01/26 12:36:38;;;;;;;7.88;3.15;;;2.50;80.10;;;;;;5052229;28;20037;-67
2021/01/26 12:39:05;;;;;;;3.78;2.75;;;2.50;80.00;;;;;;5050888;28;20040;-67
2021/01/26 12:41:30;;;;;;;5.70;3.25;;;2.50;80.00;;;;;;5053023;28;20025;-68
2021/01/26 12:43:56;;;;;;;5.15;3.15;;;2.50;80.40;;;;;;5051687;28;20068;-67
2021/01/26 12:46:22;;;;;;;7.50;4.00;;;2.60;80.20;;;;;;5052551;28;20496;-67
2021/01/26 12:48:47;;;;;;;4.57;3.22;;;2.50;79.90;;;;;;5052197;28;20029;-67
2021/01/26 12:51:13;;;;;;;6.80;3.42;;;2.50;79.50;;;;;;5050720;28;20169;-67
2021/01/26 12:53:38;;;;;;;6.97;3.10;;;2.50;79.80;;;;;;5053084;28;20075;-67
2021/01/26 12:56:04;;;;;;;7.28;3.30;;;2.50;79.00;;;;;;5051920;28;20039;-67
2021/01/26 12:58:30;;;;;;;8.80;3.30;;;2.50;79.50;;;;;;5053105;28;20118;-68
2021/01/26 13:00:55;;;;;;;9.13;3.35;;;2.50;79.90;;;;;;5050554;28;20025;-68
2021/01/26 13:03:21;;;;;;;7.18;3.17;;;2.50;79.50;;;;;;5049990;28;20112;-67
2021/01/26 13:05:48;;;;;;;6.78;2.92;;;2.50;79.60;;;;;;5048471;28;20426;-68
2021/01/26 13:08:14;;;;;;;6.45;3.35;;;2.50;79.30;;;;;;5051304;28;20028;-68
2021/01/26 13:10:40;;;;;;;13.40;4.38;;;2.50;79.50;;;;;;5051902;28;20029;-68
2021/01/26 13:13:05;;;;;;;6.90;3.45;;;2.40;79.80;;;;;;5050456;28;20142;-68
2021/01/26 13:15:31;;;;;;;6.53;3.83;;;2.40;79.70;;;;;;5050741;28;20036;-68
2021/01/26 13:17:56;;;;;;;10.38;4.68;;;2.40;79.60;;;;;;5051934;28;20021;-70
2021/01/26 13:20:22;;;;;;;7.55;4.35;;;2.50;79.50;;;;;;5051829;28;20029;-68